Time;durP1;ratioP1;P1;durP2;ratioP2;P2;SDS_P1;SDS_P2;PMS_P1;PMS_P2;Temp;Humidity;BMP_temperature;BMP_pressure;BME280_temperature;BME280_humidity;BME280_pressure;Samples;Min_cycle;Max_cycle;Signal;HPM_P1;HPM_P2
2022/07/03 00:01:39;;;;;;;7.53;6.83;;;18.40;99.90;;;;;;5046357;28;20208;-80
2022/07/03 00:04:06;;;;;;;6.77;6.17;;;18.40;99.90;;;;;;5054401;28;20209;-82
2022/07/03 00:06:33;;;;;;;6.82;6.22;;;18.30;99.90;;;;;;5037950;28;20206;-83
2022/07/03 00:09:02;;;;;;;7.97;6.60;;;18.20;99.90;;;;;;5051704;28;20217;-83
2022/07/03 00:11:30;;;;;;;7.40;6.65;;;18.20;99.90;;;;;;5044317;28;20346;-82
2022/07/03 00:13:56;;;;;;;6.33;5.77;;;18.10;99.90;;;;;;5040660;28;20217;-82
2022/07/03 00:16:23;;;;;;;8.63;5.90;;;18.10;99.90;;;;;;5039897;28;20229;-82
2022/07/03 00:18:51;;;;;;;9.43;7.10;;;18.10;99.90;;;;;;5040338;28;20213;-82
2022/07/03 00:21:31;;;;;;;9.07;6.47;;;18.10;99.90;;;;;;5047199;28;20360;-82
2022/07/03 00:24:08;;;;;;;7.10;6.40;;;18.00;99.90;;;;;;5035756;28;20772;-80
2022/07/03 00:26:41;;;;;;;6.53;5.87;;;18.00;99.90;;;;;;5042224;28;20754;-81
2022/07/03 00:29:10;;;;;;;7.70;7.00;;;18.00;99.90;;;;;;5042803;28;20618;-81
2022/07/03 00:31:37;;;;;;;8.30;7.37;;;18.00;99.90;;;;;;5043252;28;20197;-81
2022/07/03 00:34:08;;;;;;;10.17;7.20;;;17.90;99.90;;;;;;5042635;28;20205;-80
2022/07/03 00:36:38;;;;;;;7.20;6.50;;;17.90;99.90;;;;;;5040146;28;20720;-82
2022/07/03 00:39:05;;;;;;;6.87;6.20;;;17.90;99.90;;;;;;5044407;28;20218;-82
2022/07/03 00:41:34;;;;;;;8.00;6.33;;;17.80;99.90;;;;;;5044593;28;20810;-82
2022/07/03 00:44:04;;;;;;;9.23;7.27;;;17.80;99.90;;;;;;5035845;28;20192;-81
2022/07/03 00:46:31;;;;;;;9.17;6.23;;;17.80;99.90;;;;;;5038464;28;20193;-82
2022/07/03 00:48:59;;;;;;;6.53;5.93;;;17.80;99.90;;;;;;5072874;28;20220;-82
2022/07/03 00:51:32;;;;;;;11.43;6.27;;;17.80;99.90;;;;;;5042185;28;20258;-81
2022/07/03 00:54:02;;;;;;;8.13;5.90;;;17.70;99.90;;;;;;5045437;28;20228;-82
2022/07/03 00:56:30;;;;;;;9.00;6.50;;;17.70;99.90;;;;;;5048279;28;20656;-80
2022/07/03 00:59:00;;;;;;;7.13;6.30;;;17.60;99.90;;;;;;5039507;28;20232;-81
2022/07/03 01:01:34;;;;;;;7.67;5.77;;;17.60;99.90;;;;;;5045138;28;20287;-81
2022/07/03 01:04:39;;;;;;;11.17;5.70;;;17.60;99.90;;;;;;5042605;28;20208;-81
2022/07/03 01:07:34;;;;;;;8.40;5.67;;;17.50;99.90;;;;;;5033829;28;20209;-84
2022/07/03 01:10:17;;;;;;;8.33;5.97;;;17.40;99.90;;;;;;5034819;28;20265;-81
2022/07/03 01:12:59;;;;;;;8.47;6.07;;;17.40;99.90;;;;;;5041217;28;20575;-80
2022/07/03 01:15:57;;;;;;;5.90;5.27;;;17.40;99.90;;;;;;5047851;28;20325;-81
2022/07/03 01:18:42;;;;;;;6.97;5.30;;;17.30;99.90;;;;;;5036122;28;20576;-81
2022/07/03 01:21:41;;;;;;;7.13;4.50;;;17.30;99.90;;;;;;5037279;28;20205;-81
2022/07/03 01:24:53;;;;;;;5.83;4.37;;;17.20;99.90;;;;;;5047246;28;20262;-81
2022/07/03 01:27:28;;;;;;;6.27;3.77;;;17.10;99.90;;;;;;5042968;28;20223;-80
2022/07/03 01:30:06;;;;;;;4.17;3.70;;;17.00;99.90;;;;;;5041003;28;20686;-80
2022/07/03 01:32:40;;;;;;;4.23;3.20;;;17.00;99.90;;;;;;5039594;28;20209;-81
2022/07/03 01:35:08;;;;;;;5.10;3.70;;;16.70;99.90;;;;;;5043536;28;20335;-80
2022/07/03 01:37:38;;;;;;;4.83;3.70;;;16.70;99.90;;;;;;5044283;28;20835;-81
2022/07/03 01:40:07;;;;;;;4.97;3.83;;;16.90;99.90;;;;;;5036838;28;20221;-82
2022/07/03 01:42:37;;;;;;;5.23;3.50;;;16.80;99.90;;;;;;5045971;28;20780;-82
2022/07/03 01:45:07;;;;;;;4.80;4.03;;;16.70;99.90;;;;;;5045997;28;20193;-81
2022/07/03 01:47:37;;;;;;;3.90;3.60;;;16.70;99.90;;;;;;5046610;28;20747;-81
2022/07/03 01:50:05;;;;;;;5.37;4.20;;;16.90;99.90;;;;;;5037270;28;20208;-82
2022/07/03 01:52:32;;;;;;;5.73;3.60;;;16.80;99.90;;;;;;5042110;28;20231;-82
2022/07/03 01:55:15;;;;;;;7.10;4.50;;;16.70;99.90;;;;;;5049729;28;20656;-82
2022/07/03 01:57:47;;;;;;;6.17;4.57;;;16.70;99.90;;;;;;5033088;28;20210;-81
2022/07/03 02:00:22;;;;;;;4.57;4.03;;;16.80;99.90;;;;;;5035422;28;20625;-80
2022/07/03 02:03:04;;;;;;;6.00;4.47;;;16.80;99.90;;;;;;5035001;28;20239;-81
2022/07/03 02:05:43;;;;;;;7.10;4.97;;;16.80;99.90;;;;;;5035809;28;20209;-82
2022/07/03 02:08:28;;;;;;;5.23;3.60;;;16.70;99.90;;;;;;5038444;28;20216;-79
2022/07/03 02:11:09;;;;;;;4.87;3.90;;;16.70;99.90;;;;;;5037698;28;20881;-81
2022/07/03 02:14:05;;;;;;;5.10;4.53;;;16.70;99.90;;;;;;5044158;28;20206;-81
2022/07/03 02:16:56;;;;;;;7.90;4.77;;;16.70;99.90;;;;;;5040321;28;20240;-81
2022/07/03 02:19:42;;;;;;;7.07;4.13;;;16.70;99.90;;;;;;5042721;28;20249;-82
2022/07/03 02:22:12;;;;;;;6.13;4.27;;;16.70;99.90;;;;;;5049558;28;20981;-80
2022/07/03 02:24:44;;;;;;;5.37;4.80;;;16.60;99.90;;;;;;5033532;28;20217;-81
2022/07/03 02:27:23;;;;;;;10.37;4.43;;;16.80;99.90;;;;;;5040290;28;20209;-79
2022/07/03 02:30:04;;;;;;;4.90;4.23;;;16.60;99.90;;;;;;5072037;28;20843;-82
2022/07/03 02:32:36;;;;;;;5.77;4.53;;;16.60;99.90;;;;;;5035158;28;20215;-81
2022/07/03 02:35:28;;;;;;;5.63;4.77;;;16.60;99.90;;;;;;5035085;28;20248;-82
2022/07/03 02:38:18;;;;;;;8.70;5.60;;;16.70;99.90;;;;;;5039972;28;20267;-82
2022/07/03 02:40:58;;;;;;;6.13;4.83;;;16.50;99.90;;;;;;5052694;28;20209;-80
2022/07/03 02:44:10;;;;;;;6.83;5.07;;;16.50;99.90;;;;;;5039668;28;20890;-81
2022/07/03 02:46:54;;;;;;;6.33;5.03;;;16.50;99.90;;;;;;5040268;28;20606;-82
2022/07/03 02:50:08;;;;;;;5.67;5.17;;;16.50;99.90;;;;;;5041842;28;20332;-82
2022/07/03 02:52:38;;;;;;;6.33;4.70;;;16.50;99.90;;;;;;5004136;28;20237;-82
2022/07/03 02:55:44;;;;;;;5.33;4.47;;;16.40;99.90;;;;;;5003675;28;20870;-81
2022/07/03 02:58:14;;;;;;;5.03;4.53;;;16.40;99.90;;;;;;5037963;28;20264;-81
2022/07/03 03:00:51;;;;;;;6.43;4.50;;;16.30;99.90;;;;;;5041369;28;20205;-82
2022/07/03 03:03:23;;;;;;;7.27;5.00;;;16.30;99.90;;;;;;5044427;28;20208;-81
2022/07/03 03:05:53;;;;;;;6.47;5.30;;;16.20;99.90;;;;;;5038817;28;20581;-81
2022/07/03 03:08:46;;;;;;;5.87;4.47;;;16.20;99.90;;;;;;5040349;28;20911;-80
2022/07/03 03:11:30;;;;;;;5.97;4.23;;;16.20;99.90;;;;;;5049857;28;20201;-80
2022/07/03 03:13:59;;;;;;;6.77;5.03;;;16.30;99.90;;;;;;5053190;28;20269;-81
2022/07/03 03:16:27;;;;;;;7.27;4.50;;;16.10;99.90;;;;;;5051571;28;20241;-82
2022/07/03 03:18:56;;;;;;;5.53;5.03;;;16.20;99.90;;;;;;5053718;28;20209;-81
2022/07/03 03:21:31;;;;;;;5.83;4.30;;;16.20;99.90;;;;;;5055182;28;20235;-81
2022/07/03 03:23:59;;;;;;;4.90;4.37;;;16.20;99.90;;;;;;5046083;28;20220;-80
2022/07/03 03:26:33;;;;;;;5.47;4.90;;;16.10;99.90;;;;;;5050791;28;20206;-80
2022/07/03 03:29:00;;;;;;;5.83;4.60;;;16.20;99.90;;;;;;5039482;28;20205;-81
2022/07/03 03:31:27;;;;;;;9.27;4.60;;;16.20;99.90;;;;;;5050359;28;20697;-81
2022/07/03 03:33:56;;;;;;;5.83;4.07;;;16.10;99.90;;;;;;5056576;28;20207;-82
2022/07/03 03:36:36;;;;;;;7.80;4.60;;;16.10;99.90;;;;;;5053669;28;20762;-82
2022/07/03 03:39:02;;;;;;;4.70;3.67;;;16.10;99.90;;;;;;5062140;28;20212;-80
2022/07/03 03:41:33;;;;;;;4.10;3.70;;;16.10;99.90;;;;;;5065842;28;20207;-80
2022/07/03 03:44:00;;;;;;;6.60;4.33;;;16.10;99.90;;;;;;5050106;28;20213;-81
2022/07/03 03:46:29;;;;;;;6.00;4.10;;;16.20;99.90;;;;;;5059296;28;20225;-82
2022/07/03 03:48:58;;;;;;;6.70;3.77;;;16.20;99.90;;;;;;5069533;28;20185;-83
2022/07/03 03:51:26;;;;;;;6.07;3.70;;;16.20;99.90;;;;;;5072688;28;20198;-81
2022/07/03 03:53:52;;;;;;;4.60;4.20;;;16.30;99.90;;;;;;5068952;28;20217;-79
2022/07/03 03:56:19;;;;;;;6.27;3.80;;;16.40;99.90;;;;;;5066368;28;20226;-82
2022/07/03 03:58:53;;;;;;;7.93;4.77;;;16.30;99.90;;;;;;5066770;28;20556;-81
2022/07/03 04:01:20;;;;;;;5.70;3.70;;;16.40;99.90;;;;;;5067260;28;20201;-82
2022/07/03 04:03:47;;;;;;;4.33;3.93;;;16.40;99.90;;;;;;5061677;28;20196;-80
2022/07/03 04:06:14;;;;;;;4.63;3.27;;;16.50;99.90;;;;;;5074486;28;20230;-81
2022/07/03 04:08:40;;;;;;;7.33;3.50;;;16.60;99.90;;;;;;5066852;28;20204;-81
2022/07/03 04:11:09;;;;;;;3.80;3.50;;;16.60;99.90;;;;;;5063928;28;20201;-79
2022/07/03 04:13:36;;;;;;;3.90;3.40;;;16.70;99.90;;;;;;5059813;28;20217;-83
2022/07/03 04:16:03;;;;;;;4.97;3.33;;;16.80;99.90;;;;;;5061135;28;20258;-82
2022/07/03 04:18:30;;;;;;;4.63;2.83;;;16.80;99.90;;;;;;5057457;28;20230;-80
2022/07/03 04:20:59;;;;;;;4.73;2.97;;;16.90;99.90;;;;;;5050154;28;20201;-81
2022/07/03 04:23:25;;;;;;;6.30;3.27;;;16.90;99.90;;;;;;5056616;28;20275;-82
2022/07/03 04:25:52;;;;;;;5.37;2.90;;;16.90;99.90;;;;;;5049062;28;20201;-80
2022/07/03 04:28:19;;;;;;;3.57;2.67;;;16.90;99.90;;;;;;5042267;28;20201;-82
2022/07/03 04:30:47;;;;;;;6.13;3.50;;;17.00;99.90;;;;;;5046277;28;21034;-82
2022/07/03 04:33:15;;;;;;;4.40;3.03;;;17.00;99.90;;;;;;5045074;28;20880;-82
2022/07/03 04:35:41;;;;;;;3.87;2.80;;;17.00;99.90;;;;;;5045804;28;20236;-81
2022/07/03 04:38:08;;;;;;;8.63;3.20;;;17.00;99.90;;;;;;5051102;28;20283;-80
2022/07/03 04:40:35;;;;;;;3.53;2.70;;;17.00;99.90;;;;;;5047895;28;20262;-81
2022/07/03 04:43:02;;;;;;;3.87;3.00;;;17.00;99.90;;;;;;5040660;28;20585;-82
2022/07/03 04:45:29;;;;;;;3.77;2.63;;;17.00;99.90;;;;;;5039747;28;20201;-84
2022/07/03 04:47:56;;;;;;;4.23;3.30;;;17.00;99.90;;;;;;5043520;28;20217;-81
2022/07/03 04:50:23;;;;;;;3.73;3.17;;;17.00;99.90;;;;;;5041394;28;20269;-80
2022/07/03 04:52:50;;;;;;;4.73;2.77;;;17.00;99.90;;;;;;5044599;28;20748;-82
2022/07/03 04:55:16;;;;;;;3.63;3.00;;;17.00;99.90;;;;;;5041208;28;20539;-82
2022/07/03 04:57:44;;;;;;;4.63;3.00;;;17.00;99.90;;;;;;5048810;28;20241;-82
2022/07/03 05:00:11;;;;;;;4.07;3.10;;;16.90;99.90;;;;;;5043205;28;20209;-81
2022/07/03 05:02:38;;;;;;;3.57;2.93;;;17.00;99.90;;;;;;5044680;28;20223;-81
2022/07/03 05:05:05;;;;;;;2.90;2.60;;;17.00;99.90;;;;;;5052289;28;20205;-82
2022/07/03 05:07:32;;;;;;;2.93;2.50;;;17.10;99.90;;;;;;5056044;28;20227;-81
2022/07/03 05:09:59;;;;;;;3.43;2.70;;;17.10;99.90;;;;;;5040711;28;20249;-81
2022/07/03 05:12:26;;;;;;;2.93;2.17;;;17.20;99.90;;;;;;5037627;28;20230;-82
2022/07/03 05:14:53;;;;;;;4.23;2.30;;;17.20;99.90;;;;;;5044783;28;20201;-83
2022/07/03 05:17:20;;;;;;;2.40;2.20;;;17.40;99.90;;;;;;5037147;28;20244;-82
2022/07/03 05:20:23;;;;;;;3.03;2.53;;;17.50;99.90;;;;;;5055040;28;20223;-80
2022/07/03 05:22:36;;;;;;;3.33;1.83;;;17.60;99.90;;;;;;5050403;28;20228;-83
2022/07/03 05:25:03;;;;;;;3.25;1.80;;;17.80;99.90;;;;;;5051008;28;20248;-83
2022/07/03 05:27:29;;;;;;;2.80;1.95;;;18.00;99.90;;;;;;5038012;28;20252;-82
2022/07/03 05:29:56;;;;;;;3.72;1.85;;;18.10;99.90;;;;;;5042721;28;20286;-82
2022/07/03 05:32:23;;;;;;;4.28;1.70;;;18.80;99.90;;;;;;5064601;28;20204;-81
2022/07/03 05:34:52;;;;;;;2.95;1.90;;;19.70;99.90;;;;;;5043219;28;20259;-82
2022/07/03 05:37:19;;;;;;;2.47;1.73;;;20.90;99.90;;;;;;5057421;28;20599;-83
2022/07/03 05:39:45;;;;;;;3.45;1.83;;;22.10;99.90;;;;;;5043003;28;20210;-82
2022/07/03 05:42:13;;;;;;;3.13;1.90;;;23.20;99.90;;;;;;5052194;28;20210;-82
2022/07/03 05:44:40;;;;;;;2.42;1.50;;;24.20;99.90;;;;;;5037657;28;20197;-84
2022/07/03 05:47:06;;;;;;;2.63;1.73;;;25.10;99.90;;;;;;5044328;28;20212;-81
2022/07/03 05:49:33;;;;;;;4.07;2.08;;;26.10;99.90;;;;;;5039852;28;20201;-82
2022/07/03 05:52:02;;;;;;;4.03;1.77;;;26.30;99.90;;;;;;5071860;28;20203;-81
2022/07/03 05:54:29;;;;;;;2.40;1.60;;;26.40;99.90;;;;;;5053577;28;20688;-82
2022/07/03 05:56:56;;;;;;;3.28;1.33;;;26.60;99.90;;;;;;5039857;28;20233;-80
2022/07/03 05:59:23;;;;;;;2.53;1.42;;;27.00;99.90;;;;;;5047606;28;20260;-80
2022/07/03 06:01:50;;;;;;;2.58;1.30;;;27.60;99.90;;;;;;5046212;28;20209;-81
2022/07/03 06:04:16;;;;;;;2.47;1.30;;;28.30;99.90;;;;;;5045022;28;20270;-78
2022/07/03 06:06:43;;;;;;;4.20;1.30;;;28.90;99.90;;;;;;5051572;28;20669;-80
2022/07/03 06:09:10;;;;;;;3.67;1.73;;;29.30;99.90;;;;;;5042188;28;20226;-80
2022/07/03 06:11:43;;;;;;;3.60;1.83;;;;;;;;;;5046749;28;20201;-81
2022/07/03 06:14:09;;;;;;;4.70;1.75;;;28.00;97.20;;;;;;5039547;28;20282;-80
2022/07/03 06:16:36;;;;;;;3.22;1.52;;;27.60;98.20;;;;;;5045455;28;20228;-81
2022/07/03 06:19:03;;;;;;;2.03;1.30;;;27.70;98.70;;;;;;5059799;28;20213;-81
2022/07/03 06:21:30;;;;;;;3.17;1.27;;;28.10;98.50;;;;;;5053333;28;20243;-81
2022/07/03 06:23:57;;;;;;;4.85;1.50;;;28.70;97.90;;;;;;5054828;28;20297;-78
2022/07/03 06:26:24;;;;;;;2.05;1.10;;;29.30;97.20;;;;;;5053155;28;20221;-82
2022/07/03 06:28:51;;;;;;;2.22;1.08;;;29.60;96.20;;;;;;5036557;28;20205;-82
2022/07/03 06:31:18;;;;;;;1.98;1.20;;;30.10;95.00;;;;;;5043528;28;20314;-81
2022/07/03 06:33:46;;;;;;;3.10;1.10;;;30.50;94.20;;;;;;5041381;28;20263;-80
2022/07/03 06:36:13;;;;;;;2.58;0.98;;;30.70;93.40;;;;;;5047173;28;20243;-81
2022/07/03 06:38:40;;;;;;;1.90;1.10;;;30.80;92.50;;;;;;5043650;28;20251;-81
2022/07/03 06:41:06;;;;;;;3.88;1.15;;;30.50;91.70;;;;;;5052060;28;20661;-80
2022/07/03 06:43:33;;;;;;;3.03;1.00;;;29.90;91.80;;;;;;5045047;28;20213;-80
2022/07/03 06:46:00;;;;;;;3.08;1.27;;;29.60;92.20;;;;;;5038666;28;20201;-81
2022/07/03 06:48:27;;;;;;;2.78;1.00;;;29.70;92.80;;;;;;5049743;28;20530;-80
2022/07/03 06:50:54;;;;;;;2.15;1.00;;;30.30;92.60;;;;;;5047053;28;20198;-80
2022/07/03 06:53:21;;;;;;;2.47;0.80;;;30.70;91.70;;;;;;5052230;28;20575;-80
2022/07/03 06:55:48;;;;;;;3.17;1.05;;;31.00;90.70;;;;;;5043887;28;20201;-80
2022/07/03 06:58:15;;;;;;;2.70;1.10;;;30.80;90.20;;;;;;5045260;28;20740;-81
2022/07/03 07:00:42;;;;;;;4.55;1.45;;;31.00;90.30;;;;;;5048291;28;20189;-80
2022/07/03 07:03:09;;;;;;;4.65;1.30;;;31.10;89.60;;;;;;5056797;28;20497;-81
2022/07/03 07:05:36;;;;;;;3.40;1.30;;;31.00;89.00;;;;;;5050829;28;20209;-84
2022/07/03 07:08:03;;;;;;;4.25;1.60;;;30.80;87.10;;;;;;5055722;28;20189;-80
2022/07/03 07:10:30;;;;;;;3.33;1.23;;;30.40;86.20;;;;;;5055766;28;20204;-80
2022/07/03 07:12:57;;;;;;;3.35;1.27;;;30.00;87.80;;;;;;5037636;28;20244;-81
2022/07/03 07:15:23;;;;;;;4.47;1.50;;;29.80;88.00;;;;;;5036567;28;20205;-82
2022/07/03 07:17:50;;;;;;;3.22;1.60;;;29.40;89.10;;;;;;5049080;28;20303;-82
2022/07/03 07:20:17;;;;;;;2.15;1.85;;;29.00;89.20;;;;;;5031220;28;20343;-81
2022/07/03 07:22:44;;;;;;;5.22;1.60;;;28.70;90.10;;;;;;5038647;28;20632;-80
2022/07/03 07:25:13;;;;;;;2.75;1.38;;;28.90;90.70;;;;;;5066346;28;20238;-82
2022/07/03 07:27:42;;;;;;;5.30;1.35;;;29.30;90.10;;;;;;5039031;28;20241;-81
2022/07/03 07:30:09;;;;;;;3.42;1.35;;;30.00;90.00;;;;;;5038453;28;20296;-81
2022/07/03 07:32:36;;;;;;;3.65;1.35;;;30.70;88.00;;;;;;5047614;28;20638;-80
2022/07/03 07:35:06;;;;;;;3.63;1.20;;;31.10;87.40;;;;;;5049949;28;20265;-80
2022/07/03 07:37:33;;;;;;;3.40;1.00;;;31.50;85.60;;;;;;5048281;28;20332;-80
2022/07/03 07:39:59;;;;;;;2.75;1.20;;;31.70;84.10;;;;;;5046478;28;20229;-79
2022/07/03 07:42:27;;;;;;;2.72;1.20;;;31.80;83.20;;;;;;5038035;28;20241;-79
2022/07/03 07:44:54;;;;;;;3.05;1.15;;;32.00;82.80;;;;;;5038506;28;20217;-80
2022/07/03 07:47:21;;;;;;;2.47;0.98;;;31.50;81.50;;;;;;5049917;28;20246;-81
2022/07/03 07:49:48;;;;;;;3.00;1.27;;;31.80;82.10;;;;;;5046382;28;20235;-80
2022/07/03 07:52:15;;;;;;;2.15;0.80;;;32.20;81.90;;;;;;5051203;28;20208;-80
2022/07/03 07:54:41;;;;;;;3.05;1.00;;;32.50;81.50;;;;;;5048151;28;20313;-79
2022/07/03 07:57:08;;;;;;;2.85;1.20;;;32.60;80.50;;;;;;5052281;28;20264;-80
2022/07/03 07:59:35;;;;;;;6.00;1.10;;;32.40;79.60;;;;;;5036673;28;20256;-79
2022/07/03 08:07:39;;;;;;;1.45;1.10;;;30.90;80.40;;;;;;5079243;28;20201;-80
2022/07/03 08:10:06;;;;;;;3.15;1.00;;;30.20;81.30;;;;;;5045047;28;20217;-81
2022/07/03 08:12:33;;;;;;;2.00;1.10;;;30.20;82.10;;;;;;5043217;28;20597;-80
2022/07/03 08:15:00;;;;;;;2.97;1.05;;;30.50;81.40;;;;;;5038142;28;20680;-81
2022/07/03 08:17:26;;;;;;;1.33;0.80;;;30.70;80.20;;;;;;5049157;28;20595;-81
2022/07/03 08:19:53;;;;;;;3.13;0.85;;;30.80;79.80;;;;;;5052219;28;20274;-80
2022/07/03 08:22:20;;;;;;;3.45;0.90;;;31.10;79.50;;;;;;5049175;28;20457;-82
2022/07/03 08:24:47;;;;;;;1.88;0.77;;;31.20;77.70;;;;;;5048113;28;20237;-81
2022/07/03 08:27:14;;;;;;;2.92;1.00;;;31.50;76.80;;;;;;5040599;28;20305;-81
2022/07/03 08:29:41;;;;;;;5.25;0.88;;;31.70;76.10;;;;;;5037855;28;20201;-79
2022/07/03 08:32:08;;;;;;;1.88;0.88;;;31.90;76.50;;;;;;5042792;28;20214;-81
2022/07/03 08:34:35;;;;;;;1.33;0.70;;;32.10;76.10;;;;;;5045282;28;20201;-81
2022/07/03 08:37:02;;;;;;;2.47;0.70;;;32.10;75.00;;;;;;5043879;28;20225;-82
2022/07/03 08:39:29;;;;;;;1.67;0.80;;;31.70;72.70;;;;;;5055307;28;20267;-80
2022/07/03 08:41:57;;;;;;;1.30;0.60;;;31.30;72.50;;;;;;5075546;28;20650;-80
2022/07/03 08:44:25;;;;;;;1.88;0.70;;;30.90;72.70;;;;;;5046171;28;20210;-80
2022/07/03 08:46:52;;;;;;;1.25;0.70;;;30.80;73.30;;;;;;5041265;28;20205;-82
2022/07/03 08:49:19;;;;;;;3.35;0.90;;;30.90;74.50;;;;;;5051162;28;20216;-84
2022/07/03 08:51:49;;;;;;;1.05;0.75;;;30.70;73.30;;;;;;5041415;28;20292;-81
2022/07/03 08:54:16;;;;;;;2.05;0.93;;;30.70;74.20;;;;;;5042566;28;20222;-79
2022/07/03 08:56:43;;;;;;;1.25;0.88;;;30.70;74.80;;;;;;5050076;28;20290;-81
2022/07/03 08:59:11;;;;;;;2.42;0.95;;;30.80;74.40;;;;;;5034070;28;20213;-82
2022/07/03 09:01:41;;;;;;;3.08;1.20;;;30.80;73.20;;;;;;5039967;28;20204;-81
2022/07/03 09:04:15;;;;;;;2.20;0.88;;;31.10;73.70;;;;;;5041358;28;20240;-80
2022/07/03 09:06:42;;;;;;;2.15;0.88;;;31.20;74.30;;;;;;5048425;28;20216;-82
2022/07/03 09:09:09;;;;;;;2.42;0.82;;;31.20;73.40;;;;;;5046438;28;20221;-83
2022/07/03 09:11:38;;;;;;;3.08;0.98;;;31.20;73.30;;;;;;5047350;28;20264;-82
2022/07/03 09:14:06;;;;;;;3.38;1.30;;;31.10;73.20;;;;;;5041402;28;20206;-82
2022/07/03 09:16:37;;;;;;;2.67;1.05;;;30.90;73.90;;;;;;5040139;28;20262;-83
2022/07/03 09:19:04;;;;;;;3.10;1.20;;;30.80;74.40;;;;;;5050835;28;20509;-80
2022/07/03 09:21:39;;;;;;;4.03;1.20;;;30.80;74.20;;;;;;5048020;28;20209;-82
2022/07/03 09:24:08;;;;;;;3.55;0.80;;;30.40;74.90;;;;;;5051703;28;20241;-82
2022/07/03 09:26:51;;;;;;;2.25;1.10;;;30.00;76.10;;;;;;5043970;28;20201;-81
2022/07/03 09:29:18;;;;;;;2.65;1.20;;;29.50;77.60;;;;;;5034329;28;20232;-82
2022/07/03 09:31:54;;;;;;;1.48;1.08;;;29.40;78.50;;;;;;5045965;28;20209;-80
2022/07/03 09:34:23;;;;;;;2.42;1.10;;;29.10;79.50;;;;;;5043604;28;20232;-83
2022/07/03 09:36:51;;;;;;;2.22;1.17;;;28.90;79.20;;;;;;5051095;28;20205;-83
2022/07/03 09:39:31;;;;;;;2.80;0.93;;;28.60;80.00;;;;;;5048685;28;20252;-80
2022/07/03 09:42:02;;;;;;;1.85;1.10;;;28.10;80.60;;;;;;5039173;28;20297;-80
2022/07/03 09:44:46;;;;;;;1.27;1.10;;;27.80;81.50;;;;;;5036757;28;20655;-81
2022/07/03 09:47:17;;;;;;;3.00;1.30;;;27.40;82.20;;;;;;5038807;28;20208;-81
2022/07/03 09:49:46;;;;;;;4.68;1.10;;;27.10;84.20;;;;;;5038575;28;20296;-80
2022/07/03 09:52:32;;;;;;;2.90;0.80;;;26.90;84.90;;;;;;5045138;28;20633;-81
2022/07/03 09:55:20;;;;;;;3.10;1.17;;;27.10;85.60;;;;;;5043450;28;20762;-82
2022/07/03 09:57:50;;;;;;;2.00;1.15;;;27.30;85.30;;;;;;5042441;28;20258;-82
2022/07/03 10:00:19;;;;;;;2.33;1.00;;;28.00;85.30;;;;;;5041800;28;20719;-82
2022/07/03 10:02:56;;;;;;;2.75;1.13;;;28.30;84.20;;;;;;5037764;28;20209;-85
2022/07/03 10:05:25;;;;;;;3.65;1.10;;;28.60;85.30;;;;;;5044650;28;20686;-81
2022/07/03 10:08:04;;;;;;;2.63;1.45;;;28.90;84.70;;;;;;5048878;28;20220;-82
2022/07/03 10:10:35;;;;;;;2.20;1.20;;;28.80;84.30;;;;;;5038527;28;20232;-82
2022/07/03 10:13:04;;;;;;;1.90;0.88;;;28.90;83.60;;;;;;5037034;28;20252;-84
2022/07/03 10:15:35;;;;;;;2.15;1.00;;;28.60;83.30;;;;;;5044462;28;20243;-80
2022/07/03 10:18:04;;;;;;;2.65;1.20;;;28.40;83.30;;;;;;5039893;28;20269;-81
2022/07/03 10:20:47;;;;;;;1.65;1.00;;;28.20;83.80;;;;;;5040819;28;20217;-79
2022/07/03 10:23:15;;;;;;;2.70;1.13;;;28.30;84.60;;;;;;5046157;28;20220;-83
2022/07/03 10:25:44;;;;;;;2.95;1.00;;;28.40;84.00;;;;;;5043832;28;20236;-81
2022/07/03 10:28:13;;;;;;;1.80;0.98;;;28.70;84.00;;;;;;5034052;28;21028;-83
2022/07/03 10:30:42;;;;;;;3.22;0.80;;;28.70;83.00;;;;;;5042982;28;20300;-79
2022/07/03 10:33:09;;;;;;;2.90;1.15;;;28.60;83.80;;;;;;5037586;28;20814;-82
2022/07/03 10:35:56;;;;;;;3.05;1.10;;;28.50;84.20;;;;;;5044065;28;20210;-82
2022/07/03 10:38:39;;;;;;;2.38;0.88;;;28.70;82.90;;;;;;5058570;28;20225;-77
2022/07/03 10:46:47;;;;;;;1.67;0.60;;;29.30;82.60;;;;;;5036446;28;20213;-79
2022/07/03 10:49:14;;;;;;;1.33;0.88;;;29.30;79.30;;;;;;5052332;28;20227;-81
2022/07/03 10:52:00;;;;;;;3.33;0.90;;;29.50;78.50;;;;;;5053636;28;20644;-81
2022/07/03 10:54:37;;;;;;;1.17;0.60;;;29.80;77.10;;;;;;5046692;28;20224;-82
2022/07/03 10:57:04;;;;;;;0.68;0.52;;;29.60;78.10;;;;;;5045636;28;20205;-82
2022/07/03 10:59:37;;;;;;;1.25;0.50;;;29.70;79.00;;;;;;5049996;28;20201;-82
2022/07/03 11:02:22;;;;;;;1.52;0.60;;;29.80;79.40;;;;;;5043536;28;20201;-81
2022/07/03 11:05:01;;;;;;;2.92;0.80;;;29.60;77.60;;;;;;5047591;28;20513;-80
2022/07/03 11:07:53;;;;;;;2.42;0.85;;;29.20;77.60;;;;;;5050675;28;20331;-80
2022/07/03 11:10:24;;;;;;;2.17;0.80;;;28.80;76.60;;;;;;5049679;28;20591;-81
2022/07/03 11:13:17;;;;;;;2.08;0.80;;;28.50;78.30;;;;;;5051662;28;20208;-82
2022/07/03 11:15:52;;;;;;;2.28;0.70;;;28.20;78.80;;;;;;5048811;28;20193;-83
2022/07/03 11:18:19;;;;;;;1.77;0.82;;;28.20;79.10;;;;;;5043588;28;20232;-81
2022/07/03 11:20:51;;;;;;;1.23;0.52;;;28.20;79.50;;;;;;5049292;28;20201;-79
2022/07/03 11:23:29;;;;;;;1.33;0.88;;;28.20;77.90;;;;;;5047697;28;20213;-80
2022/07/03 11:26:20;;;;;;;1.58;0.80;;;28.30;76.90;;;;;;5044826;28;20201;-82
2022/07/03 11:28:49;;;;;;;3.13;1.00;;;28.30;79.00;;;;;;5041571;28;20285;-79
2022/07/03 11:31:17;;;;;;;1.90;0.80;;;28.20;79.20;;;;;;5044440;28;20255;-78
2022/07/03 11:33:57;;;;;;;1.90;0.85;;;28.30;79.30;;;;;;5044245;28;20266;-82
2022/07/03 11:36:28;;;;;;;1.98;0.82;;;28.50;78.30;;;;;;5071604;28;20275;-82
2022/07/03 11:38:55;;;;;;;2.08;0.70;;;28.60;78.40;;;;;;5047067;28;20228;-81
2022/07/03 11:41:22;;;;;;;2.85;0.90;;;28.70;79.00;;;;;;5045157;28;20728;-82
2022/07/03 11:44:02;;;;;;;1.23;0.70;;;28.70;78.30;;;;;;5043625;28;20976;-81
2022/07/03 11:46:31;;;;;;;0.95;0.70;;;28.60;77.80;;;;;;5049440;28;20216;-80
2022/07/03 11:49:35;;;;;;;2.35;0.80;;;28.50;76.50;;;;;;5050916;28;20285;-81
2022/07/03 11:52:04;;;;;;;2.08;0.68;;;28.10;76.70;;;;;;5054431;28;20568;-82
2022/07/03 11:54:33;;;;;;;1.60;0.80;;;27.90;78.00;;;;;;5046212;28;20241;-79
2022/07/03 11:57:00;;;;;;;1.05;0.70;;;28.00;79.60;;;;;;5043554;28;20270;-82
2022/07/03 11:59:28;;;;;;;1.23;0.80;;;28.00;79.60;;;;;;5050803;28;20762;-82
2022/07/03 12:02:03;;;;;;;3.10;0.80;;;28.20;78.50;;;;;;5059303;28;20204;-82
2022/07/03 12:04:31;;;;;;;2.58;0.80;;;28.30;77.10;;;;;;5052846;28;20196;-81
2022/07/03 12:06:59;;;;;;;0.93;0.60;;;28.00;76.10;;;;;;5046552;28;20204;-80
2022/07/03 12:09:34;;;;;;;2.15;0.70;;;27.70;75.10;;;;;;5047595;28;20411;-81
2022/07/03 12:12:07;;;;;;;1.95;0.80;;;27.70;75.60;;;;;;5050983;28;20205;-81
2022/07/03 12:14:37;;;;;;;1.45;0.60;;;27.60;73.80;;;;;;5053865;28;20197;-79
2022/07/03 12:17:05;;;;;;;1.73;0.85;;;27.70;74.30;;;;;;5040062;28;20226;-83
2022/07/03 12:19:34;;;;;;;1.08;0.65;;;27.90;74.40;;;;;;5055853;28;20225;-83
2022/07/03 12:22:01;;;;;;;1.08;0.60;;;28.20;75.20;;;;;;5052280;28;20205;-79
2022/07/03 12:24:28;;;;;;;1.75;0.70;;;28.40;75.90;;;;;;5053414;28;20226;-82
2022/07/03 12:26:55;;;;;;;2.58;0.60;;;28.60;75.90;;;;;;5053126;28;20264;-80
2022/07/03 12:29:22;;;;;;;1.63;0.85;;;28.60;76.20;;;;;;5039107;28;20761;-82
2022/07/03 12:31:50;;;;;;;4.50;0.82;;;28.60;80.60;;;;;;5042334;28;20213;-85
2022/07/03 12:34:20;;;;;;;1.73;0.90;;;28.50;83.60;;;;;;5048190;28;20209;-83
2022/07/03 12:37:00;;;;;;;3.72;1.00;;;28.10;85.10;;;;;;5042340;28;20362;-81
2022/07/03 12:39:46;;;;;;;1.65;0.80;;;27.80;88.70;;;;;;5043594;28;20734;-79
2022/07/03 12:42:20;;;;;;;2.35;0.90;;;27.70;88.90;;;;;;5035119;28;20229;-81
2022/07/03 12:45:01;;;;;;;2.63;1.10;;;27.60;89.50;;;;;;5043783;28;20481;-80
2022/07/03 12:47:29;;;;;;;1.75;0.90;;;27.80;90.20;;;;;;5046847;28;20657;-84
2022/07/03 12:49:56;;;;;;;3.60;1.00;;;27.70;89.20;;;;;;5040562;28;20210;-80
2022/07/03 12:52:23;;;;;;;1.50;0.98;;;27.70;89.60;;;;;;5049070;28;20304;-79
2022/07/03 12:54:50;;;;;;;2.42;1.20;;;27.80;89.00;;;;;;5048687;28;20267;-79
2022/07/03 13:00:04;;;;;;;2.15;1.17;;;27.70;90.10;;;;;;5036564;28;20206;-80
2022/07/03 13:02:31;;;;;;;3.05;0.90;;;27.60;90.10;;;;;;5046604;28;20282;-82
2022/07/03 13:05:01;;;;;;;2.40;1.27;;;27.50;90.20;;;;;;5040011;28;20718;-81
2022/07/03 13:07:30;;;;;;;1.65;1.08;;;27.20;90.20;;;;;;5038145;28;20295;-81
2022/07/03 13:10:03;;;;;;;2.38;1.20;;;27.20;90.00;;;;;;5039029;28;20218;-82
2022/07/03 13:12:34;;;;;;;2.05;0.90;;;27.20;89.20;;;;;;5034342;28;20194;-83
2022/07/03 13:15:01;;;;;;;2.78;1.05;;;27.40;90.00;;;;;;5039083;28;20212;-82
2022/07/03 13:17:53;;;;;;;4.25;1.45;;;27.70;89.70;;;;;;5046063;28;20239;-83
2022/07/03 13:20:29;;;;;;;1.58;1.10;;;27.80;87.40;;;;;;5038579;28;20194;-81
2022/07/03 13:23:03;;;;;;;1.95;1.00;;;27.40;86.80;;;;;;5044131;28;20255;-79
2022/07/03 13:25:32;;;;;;;1.52;1.00;;;27.40;87.60;;;;;;5044029;28;20258;-81